sensor_id;sensor_type;location;lat;lon;timestamp;temperature;humidity
59651;DHT22;45954;49.768;8.636;2023-01-26T00:01:13;2.50;99.90
59651;DHT22;45954;49.768;8.636;2023-01-26T00:03:44;2.60;99.90
59651;DHT22;45954;49.768;8.636;2023-01-26T00:06:12;2.80;99.90
59651;DHT22;45954;49.768;8.636;2023-01-26T00:08:42;2.50;99.90
59651;DHT22;45954;49.768;8.636;2023-01-26T00:11:12;2.30;99.90
59651;DHT22;45954;49.768;8.636;2023-01-26T00:13:40;2.30;99.90
59651;DHT22;45954;49.768;8.636;2023-01-26T00:16:13;2.60;99.90
59651;DHT22;45954;49.768;8.636;2023-01-26T00:18:40;2.90;99.90
59651;DHT22;45954;49.768;8.636;2023-01-26T00:21:11;2.80;99.90
59651;DHT22;45954;49.768;8.636;2023-01-26T00:23:38;2.80;99.90
59651;DHT22;45954;49.768;8.636;2023-01-26T00:26:09;2.80;99.90
59651;DHT22;45954;49.768;8.636;2023-01-26T00:28:37;2.80;99.90
59651;DHT22;45954;49.768;8.636;2023-01-26T00:31:05;2.90;99.90
59651;DHT22;45954;49.768;8.636;2023-01-26T00:33:42;2.90;99.90
59651;DHT22;45954;49.768;8.636;2023-01-26T00:36:08;2.40;99.90
59651;DHT22;45954;49.768;8.636;2023-01-26T00:38:34;2.60;99.90
59651;DHT22;45954;49.768;8.636;2023-01-26T00:40:59;2.60;99.90
59651;DHT22;45954;49.768;8.636;2023-01-26T00:43:25;2.50;99.90
59651;DHT22;45954;49.768;8.636;2023-01-26T00:45:51;2.70;99.90
59651;DHT22;45954;49.768;8.636;2023-01-26T00:48:17;2.70;99.90
59651;DHT22;45954;49.768;8.636;2023-01-26T00:50:43;3.10;99.90
59651;DHT22;45954;49.768;8.636;2023-01-26T00:53:10;2.90;99.90
59651;DHT22;45954;49.768;8.636;2023-01-26T00:55:36;2.80;99.90
59651;DHT22;45954;49.768;8.636;2023-01-26T00:58:04;2.70;99.90
59651;DHT22;45954;49.768;8.636;2023-01-26T01:00:32;2.90;99.90
59651;DHT22;45954;49.768;8.636;2023-01-26T01:02:59;3.10;99.90
59651;DHT22;45954;49.768;8.636;2023-01-26T01:05:28;3.10;99.90
59651;DHT22;45954;49.768;8.636;2023-01-26T01:07:55;2.90;99.90
59651;DHT22;45954;49.768;8.636;2023-01-26T01:10:22;2.90;99.90
59651;DHT22;45954;49.768;8.636;2023-01-26T01:12:48;3.10;99.90
59651;DHT22;45954;49.768;8.636;2023-01-26T01:15:14;2.80;99.90
59651;DHT22;45954;49.768;8.636;2023-01-26T01:17:41;2.60;99.90
59651;DHT22;45954;49.768;8.636;2023-01-26T01:20:08;2.50;99.90
59651;DHT22;45954;49.768;8.636;2023-01-26T01:22:36;2.70;99.90
59651;DHT22;45954;49.768;8.636;2023-01-26T01:25:02;2.90;99.90
59651;DHT22;45954;49.768;8.636;2023-01-26T01:27:28;2.90;99.90
59651;DHT22;45954;49.768;8.636;2023-01-26T01:29:54;2.90;99.90
59651;DHT22;45954;49.768;8.636;2023-01-26T01:32:20;3.00;99.90
59651;DHT22;45954;49.768;8.636;2023-01-26T01:34:47;3.10;99.90
59651;DHT22;45954;49.768;8.636;2023-01-26T01:37:14;2.80;99.90
59651;DHT22;45954;49.768;8.636;2023-01-26T01:39:41;2.60;99.90
59651;DHT22;45954;49.768;8.636;2023-01-26T01:42:07;2.10;99.90
59651;DHT22;45954;49.768;8.636;2023-01-26T01:44:35;1.90;99.90
59651;DHT22;45954;49.768;8.636;2023-01-26T01:47:08;1.90;99.90
59651;DHT22;45954;49.768;8.636;2023-01-26T01:49:49;2.00;99.90
59651;DHT22;45954;49.768;8.636;2023-01-26T01:52:20;2.20;99.90
59651;DHT22;45954;49.768;8.636;2023-01-26T01:55:04;2.30;99.90
59651;DHT22;45954;49.768;8.636;2023-01-26T01:57:46;2.60;99.90
59651;DHT22;45954;49.768;8.636;2023-01-26T02:00:21;2.60;99.90
59651;DHT22;45954;49.768;8.636;2023-01-26T02:02:54;2.30;99.90
59651;DHT22;45954;49.768;8.636;2023-01-26T02:06:15;1.90;99.90
59651;DHT22;45954;49.768;8.636;2023-01-26T02:08:50;2.20;99.90
59651;DHT22;45954;49.768;8.636;2023-01-26T02:11:29;2.60;99.90
59651;DHT22;45954;49.768;8.636;2023-01-26T02:14:02;2.50;99.90
59651;DHT22;45954;49.768;8.636;2023-01-26T02:16:30;2.70;99.90
59651;DHT22;45954;49.768;8.636;2023-01-26T02:18:56;2.80;99.90
59651;DHT22;45954;49.768;8.636;2023-01-26T02:21:23;2.60;99.90
59651;DHT22;45954;49.768;8.636;2023-01-26T02:26:32;2.30;99.90
59651;DHT22;45954;49.768;8.636;2023-01-26T02:29:01;2.50;99.90
59651;DHT22;45954;49.768;8.636;2023-01-26T02:31:28;2.60;99.90
59651;DHT22;45954;49.768;8.636;2023-01-26T02:33:55;2.50;99.90
59651;DHT22;45954;49.768;8.636;2023-01-26T02:36:27;2.20;99.90
59651;DHT22;45954;49.768;8.636;2023-01-26T02:39:21;2.10;99.90
59651;DHT22;45954;49.768;8.636;2023-01-26T02:41:54;2.40;99.90
59651;DHT22;45954;49.768;8.636;2023-01-26T02:44:41;2.50;99.90
59651;DHT22;45954;49.768;8.636;2023-01-26T02:47:15;2.50;99.90
59651;DHT22;45954;49.768;8.636;2023-01-26T02:49:43;2.30;99.90
59651;DHT22;45954;49.768;8.636;2023-01-26T02:52:17;2.20;99.90
59651;DHT22;45954;49.768;8.636;2023-01-26T02:54:44;2.20;99.90
59651;DHT22;45954;49.768;8.636;2023-01-26T02:57:28;2.40;99.90
59651;DHT22;45954;49.768;8.636;2023-01-26T02:59:54;2.30;99.90
59651;DHT22;45954;49.768;8.636;2023-01-26T03:02:20;2.50;99.90
59651;DHT22;45954;49.768;8.636;2023-01-26T03:04:47;2.30;99.90
59651;DHT22;45954;49.768;8.636;2023-01-26T03:07:12;2.40;99.90
59651;DHT22;45954;49.768;8.636;2023-01-26T03:09:38;1.90;99.90
59651;DHT22;45954;49.768;8.636;2023-01-26T03:12:04;1.90;99.90
59651;DHT22;45954;49.768;8.636;2023-01-26T03:14:30;2.00;99.90
59651;DHT22;45954;49.768;8.636;2023-01-26T03:16:56;2.00;99.90
59651;DHT22;45954;49.768;8.636;2023-01-26T03:19:22;2.10;99.90
59651;DHT22;45954;49.768;8.636;2023-01-26T03:22:09;2.20;99.90
59651;DHT22;45954;49.768;8.636;2023-01-26T03:24:54;1.80;99.90
59651;DHT22;45954;49.768;8.636;2023-01-26T03:27:43;1.70;99.90
59651;DHT22;45954;49.768;8.636;2023-01-26T03:30:12;1.80;99.90
59651;DHT22;45954;49.768;8.636;2023-01-26T03:32:39;1.70;99.90
59651;DHT22;45954;49.768;8.636;2023-01-26T03:35:05;1.90;99.90
59651;DHT22;45954;49.768;8.636;2023-01-26T03:37:32;1.80;99.90
59651;DHT22;45954;49.768;8.636;2023-01-26T03:40:05;1.70;99.90
59651;DHT22;45954;49.768;8.636;2023-01-26T03:42:50;1.70;99.90
59651;DHT22;45954;49.768;8.636;2023-01-26T03:45:34;1.80;99.90
59651;DHT22;45954;49.768;8.636;2023-01-26T03:48:18;1.90;99.90
59651;DHT22;45954;49.768;8.636;2023-01-26T03:51:03;2.10;99.90
59651;DHT22;45954;49.768;8.636;2023-01-26T03:53:47;2.20;99.90
59651;DHT22;45954;49.768;8.636;2023-01-26T03:56:32;2.30;99.90
59651;DHT22;45954;49.768;8.636;2023-01-26T03:59:01;2.30;99.90
59651;DHT22;45954;49.768;8.636;2023-01-26T04:01:45;2.30;99.90
59651;DHT22;45954;49.768;8.636;2023-01-26T04:04:30;2.50;99.90
59651;DHT22;45954;49.768;8.636;2023-01-26T04:07:15;2.50;99.90
59651;DHT22;45954;49.768;8.636;2023-01-26T04:10:00;2.70;99.90
59651;DHT22;45954;49.768;8.636;2023-01-26T04:12:26;2.50;99.90
59651;DHT22;45954;49.768;8.636;2023-01-26T04:14:51;2.50;99.90
59651;DHT22;45954;49.768;8.636;2023-01-26T04:17:36;2.80;99.90
59651;DHT22;45954;49.768;8.636;2023-01-26T04:20:20;2.80;99.90
59651;DHT22;45954;49.768;8.636;2023-01-26T04:23:04;2.80;99.90
59651;DHT22;45954;49.768;8.636;2023-01-26T04:25:30;2.90;99.90
59651;DHT22;45954;49.768;8.636;2023-01-26T04:27:56;2.80;99.90
59651;DHT22;45954;49.768;8.636;2023-01-26T04:30:22;2.60;99.90
59651;DHT22;45954;49.768;8.636;2023-01-26T04:32:49;2.40;99.90
59651;DHT22;45954;49.768;8.636;2023-01-26T04:35:15;2.20;99.90
59651;DHT22;45954;49.768;8.636;2023-01-26T04:37:41;2.00;99.90
59651;DHT22;45954;49.768;8.636;2023-01-26T04:40:08;1.80;99.90
59651;DHT22;45954;49.768;8.636;2023-01-26T04:42:34;1.70;99.90
59651;DHT22;45954;49.768;8.636;2023-01-26T04:45:00;1.70;99.90
59651;DHT22;45954;49.768;8.636;2023-01-26T04:47:25;1.70;99.90
59651;DHT22;45954;49.768;8.636;2023-01-26T04:49:51;1.70;99.90
59651;DHT22;45954;49.768;8.636;2023-01-26T04:52:17;1.50;99.90
59651;DHT22;45954;49.768;8.636;2023-01-26T04:54:43;1.80;99.90
59651;DHT22;45954;49.768;8.636;2023-01-26T04:57:09;1.80;99.90
59651;DHT22;45954;49.768;8.636;2023-01-26T04:59:36;1.90;99.90
59651;DHT22;45954;49.768;8.636;2023-01-26T05:02:01;2.00;99.90
59651;DHT22;45954;49.768;8.636;2023-01-26T05:04:27;1.90;99.90
59651;DHT22;45954;49.768;8.636;2023-01-26T05:06:53;1.90;99.90
59651;DHT22;45954;49.768;8.636;2023-01-26T05:09:19;2.00;99.90
59651;DHT22;45954;49.768;8.636;2023-01-26T05:11:45;1.70;99.90
59651;DHT22;45954;49.768;8.636;2023-01-26T05:14:11;1.20;99.90
59651;DHT22;45954;49.768;8.636;2023-01-26T05:16:36;1.00;99.90
59651;DHT22;45954;49.768;8.636;2023-01-26T05:19:02;1.20;99.90
59651;DHT22;45954;49.768;8.636;2023-01-26T05:21:28;1.20;99.90
59651;DHT22;45954;49.768;8.636;2023-01-26T05:23:54;1.40;99.90
59651;DHT22;45954;49.768;8.636;2023-01-26T05:26:20;1.40;99.90
59651;DHT22;45954;49.768;8.636;2023-01-26T05:28:46;1.20;99.90
59651;DHT22;45954;49.768;8.636;2023-01-26T05:31:11;1.10;99.90
59651;DHT22;45954;49.768;8.636;2023-01-26T05:33:37;1.10;99.90
59651;DHT22;45954;49.768;8.636;2023-01-26T05:36:05;1.10;99.90
59651;DHT22;45954;49.768;8.636;2023-01-26T05:38:32;1.10;99.90
59651;DHT22;45954;49.768;8.636;2023-01-26T05:40:58;1.20;99.90
59651;DHT22;45954;49.768;8.636;2023-01-26T05:43:24;1.20;99.90
59651;DHT22;45954;49.768;8.636;2023-01-26T05:45:51;1.00;99.90
59651;DHT22;45954;49.768;8.636;2023-01-26T05:48:17;1.00;99.90
59651;DHT22;45954;49.768;8.636;2023-01-26T05:50:42;1.10;99.90
59651;DHT22;45954;49.768;8.636;2023-01-26T05:53:08;1.30;99.90
59651;DHT22;45954;49.768;8.636;2023-01-26T05:55:34;1.40;99.90
59651;DHT22;45954;49.768;8.636;2023-01-26T05:58:00;1.50;99.90
59651;DHT22;45954;49.768;8.636;2023-01-26T06:00:26;1.40;99.90
59651;DHT22;45954;49.768;8.636;2023-01-26T06:02:52;1.40;99.90
59651;DHT22;45954;49.768;8.636;2023-01-26T06:05:18;1.40;99.90
59651;DHT22;45954;49.768;8.636;2023-01-26T06:07:44;1.70;99.90
59651;DHT22;45954;49.768;8.636;2023-01-26T06:10:10;1.70;99.90
59651;DHT22;45954;49.768;8.636;2023-01-26T06:12:36;1.50;99.90
59651;DHT22;45954;49.768;8.636;2023-01-26T06:15:04;1.50;99.90
59651;DHT22;45954;49.768;8.636;2023-01-26T06:17:31;1.70;99.90
59651;DHT22;45954;49.768;8.636;2023-01-26T06:19:57;1.90;99.90
59651;DHT22;45954;49.768;8.636;2023-01-26T06:22:23;2.00;99.90
59651;DHT22;45954;49.768;8.636;2023-01-26T06:24:49;1.90;99.90
59651;DHT22;45954;49.768;8.636;2023-01-26T06:27:17;1.60;99.90
59651;DHT22;45954;49.768;8.636;2023-01-26T06:29:44;1.60;99.90
59651;DHT22;45954;49.768;8.636;2023-01-26T06:32:11;1.60;99.90
59651;DHT22;45954;49.768;8.636;2023-01-26T06:34:39;1.50;99.90
59651;DHT22;45954;49.768;8.636;2023-01-26T06:37:05;1.30;99.90
59651;DHT22;45954;49.768;8.636;2023-01-26T06:39:32;1.40;99.90
59651;DHT22;45954;49.768;8.636;2023-01-26T06:41:58;1.50;99.90
59651;DHT22;45954;49.768;8.636;2023-01-26T06:44:24;1.70;99.90
59651;DHT22;45954;49.768;8.636;2023-01-26T06:46:50;1.90;99.90
59651;DHT22;45954;49.768;8.636;2023-01-26T06:49:15;1.90;99.90
59651;DHT22;45954;49.768;8.636;2023-01-26T06:54:29;1.90;99.90
59651;DHT22;45954;49.768;8.636;2023-01-26T06:56:54;1.90;99.90
59651;DHT22;45954;49.768;8.636;2023-01-26T06:59:20;1.80;99.90
59651;DHT22;45954;49.768;8.636;2023-01-26T07:01:47;1.80;99.90
59651;DHT22;45954;49.768;8.636;2023-01-26T07:04:13;1.90;99.90
59651;DHT22;45954;49.768;8.636;2023-01-26T07:06:40;2.00;99.90
59651;DHT22;45954;49.768;8.636;2023-01-26T07:09:06;1.80;99.90
59651;DHT22;45954;49.768;8.636;2023-01-26T07:11:32;1.80;99.90
59651;DHT22;45954;49.768;8.636;2023-01-26T07:13:58;1.80;99.90
59651;DHT22;45954;49.768;8.636;2023-01-26T07:16:24;1.90;99.90
59651;DHT22;45954;49.768;8.636;2023-01-26T07:18:52;2.20;99.90
59651;DHT22;45954;49.768;8.636;2023-01-26T07:21:19;2.20;99.90
59651;DHT22;45954;49.768;8.636;2023-01-26T07:23:45;1.70;99.90
59651;DHT22;45954;49.768;8.636;2023-01-26T07:26:12;1.80;99.90
59651;DHT22;45954;49.768;8.636;2023-01-26T07:28:38;1.80;99.90
59651;DHT22;45954;49.768;8.636;2023-01-26T07:31:06;1.70;99.90
59651;DHT22;45954;49.768;8.636;2023-01-26T07:33:33;1.60;99.90
59651;DHT22;45954;49.768;8.636;2023-01-26T07:36:00;1.80;99.90
59651;DHT22;45954;49.768;8.636;2023-01-26T07:38:27;1.40;99.90
59651;DHT22;45954;49.768;8.636;2023-01-26T07:40:54;1.60;99.90
59651;DHT22;45954;49.768;8.636;2023-01-26T07:43:21;1.50;99.90
59651;DHT22;45954;49.768;8.636;2023-01-26T07:45:48;1.70;99.90
59651;DHT22;45954;49.768;8.636;2023-01-26T07:48:18;1.90;99.90
59651;DHT22;45954;49.768;8.636;2023-01-26T07:50:45;1.90;99.90
59651;DHT22;45954;49.768;8.636;2023-01-26T07:53:12;2.00;99.90
59651;DHT22;45954;49.768;8.636;2023-01-26T07:55:40;2.10;99.90
59651;DHT22;45954;49.768;8.636;2023-01-26T07:58:09;2.30;99.90
59651;DHT22;45954;49.768;8.636;2023-01-26T08:00:35;2.10;99.90
59651;DHT22;45954;49.768;8.636;2023-01-26T08:03:01;1.90;99.90
59651;DHT22;45954;49.768;8.636;2023-01-26T08:05:27;1.90;99.90
59651;DHT22;45954;49.768;8.636;2023-01-26T08:07:57;2.10;99.90
59651;DHT22;45954;49.768;8.636;2023-01-26T08:10:24;2.10;99.90
59651;DHT22;45954;49.768;8.636;2023-01-26T08:12:58;2.20;99.90
59651;DHT22;45954;49.768;8.636;2023-01-26T08:15:26;2.00;99.90
59651;DHT22;45954;49.768;8.636;2023-01-26T08:17:53;1.80;99.90
59651;DHT22;45954;49.768;8.636;2023-01-26T08:20:19;1.50;99.90
59651;DHT22;45954;49.768;8.636;2023-01-26T08:22:45;1.80;99.90
59651;DHT22;45954;49.768;8.636;2023-01-26T08:25:11;1.80;99.90
59651;DHT22;45954;49.768;8.636;2023-01-26T08:27:37;1.80;99.90
59651;DHT22;45954;49.768;8.636;2023-01-26T08:30:03;1.90;99.90
59651;DHT22;45954;49.768;8.636;2023-01-26T08:32:30;2.00;99.90
59651;DHT22;45954;49.768;8.636;2023-01-26T08:34:56;2.00;99.90
59651;DHT22;45954;49.768;8.636;2023-01-26T08:37:21;2.10;99.90
59651;DHT22;45954;49.768;8.636;2023-01-26T08:39:47;2.20;99.90
59651;DHT22;45954;49.768;8.636;2023-01-26T08:42:13;2.20;99.90
59651;DHT22;45954;49.768;8.636;2023-01-26T08:44:39;2.30;99.90
59651;DHT22;45954;49.768;8.636;2023-01-26T08:47:05;2.30;99.90
59651;DHT22;45954;49.768;8.636;2023-01-26T08:49:31;2.50;99.90
59651;DHT22;45954;49.768;8.636;2023-01-26T08:51:56;2.60;99.90
59651;DHT22;45954;49.768;8.636;2023-01-26T08:54:22;2.50;99.90
59651;DHT22;45954;49.768;8.636;2023-01-26T08:56:48;2.50;99.90
59651;DHT22;45954;49.768;8.636;2023-01-26T08:59:14;2.30;99.90
59651;DHT22;45954;49.768;8.636;2023-01-26T09:01:40;1.90;99.90
59651;DHT22;45954;49.768;8.636;2023-01-26T09:04:06;2.00;99.90
59651;DHT22;45954;49.768;8.636;2023-01-26T09:06:31;2.00;99.90
59651;DHT22;45954;49.768;8.636;2023-01-26T09:08:58;2.00;99.90
59651;DHT22;45954;49.768;8.636;2023-01-26T09:11:23;1.90;99.90
59651;DHT22;45954;49.768;8.636;2023-01-26T09:13:50;1.70;99.90
59651;DHT22;45954;49.768;8.636;2023-01-26T09:16:21;2.00;99.90
59651;DHT22;45954;49.768;8.636;2023-01-26T09:18:52;1.90;99.90
59651;DHT22;45954;49.768;8.636;2023-01-26T09:21:19;2.00;99.90
59651;DHT22;45954;49.768;8.636;2023-01-26T09:23:45;1.80;99.90
59651;DHT22;45954;49.768;8.636;2023-01-26T09:26:11;1.80;99.90
59651;DHT22;45954;49.768;8.636;2023-01-26T09:28:37;1.70;99.90
59651;DHT22;45954;49.768;8.636;2023-01-26T09:31:08;1.40;99.90
59651;DHT22;45954;49.768;8.636;2023-01-26T09:33:36;1.30;99.90
59651;DHT22;45954;49.768;8.636;2023-01-26T09:36:07;1.40;99.90
59651;DHT22;45954;49.768;8.636;2023-01-26T09:38:34;1.30;99.90
59651;DHT22;45954;49.768;8.636;2023-01-26T09:41:04;1.30;99.90
59651;DHT22;45954;49.768;8.636;2023-01-26T09:43:51;1.40;99.90
59651;DHT22;45954;49.768;8.636;2023-01-26T09:46:49;1.50;99.90
59651;DHT22;45954;49.768;8.636;2023-01-26T09:49:25;2.00;99.90
59651;DHT22;45954;49.768;8.636;2023-01-26T09:52:05;1.80;99.90
59651;DHT22;45954;49.768;8.636;2023-01-26T09:54:47;1.80;99.90
59651;DHT22;45954;49.768;8.636;2023-01-26T09:57:37;2.00;99.90
59651;DHT22;45954;49.768;8.636;2023-01-26T10:06:23;1.50;99.90
59651;DHT22;45954;49.768;8.636;2023-01-26T10:09:00;1.30;99.90
59651;DHT22;45954;49.768;8.636;2023-01-26T10:11:36;1.40;99.90
59651;DHT22;45954;49.768;8.636;2023-01-26T10:16:52;1.60;99.90
59651;DHT22;45954;49.768;8.636;2023-01-26T10:19:44;1.60;99.90
59651;DHT22;45954;49.768;8.636;2023-01-26T10:22:31;1.80;99.90
59651;DHT22;45954;49.768;8.636;2023-01-26T10:25:16;2.00;99.90
59651;DHT22;45954;49.768;8.636;2023-01-26T10:27:51;2.10;99.90
59651;DHT22;45954;49.768;8.636;2023-01-26T10:30:19;1.30;99.90
59651;DHT22;45954;49.768;8.636;2023-01-26T10:32:50;1.30;99.90
59651;DHT22;45954;49.768;8.636;2023-01-26T10:35:22;1.40;99.90
59651;DHT22;45954;49.768;8.636;2023-01-26T10:37:49;1.20;99.90
59651;DHT22;45954;49.768;8.636;2023-01-26T10:40:18;1.40;99.90
59651;DHT22;45954;49.768;8.636;2023-01-26T10:42:56;1.10;99.90
59651;DHT22;45954;49.768;8.636;2023-01-26T10:45:29;1.00;99.90
59651;DHT22;45954;49.768;8.636;2023-01-26T10:48:17;1.10;99.90
59651;DHT22;45954;49.768;8.636;2023-01-26T10:50:46;1.20;99.90
59651;DHT22;45954;49.768;8.636;2023-01-26T10:53:24;1.30;99.90
59651;DHT22;45954;49.768;8.636;2023-01-26T10:56:04;1.50;99.90
59651;DHT22;45954;49.768;8.636;2023-01-26T10:58:48;1.50;99.90
59651;DHT22;45954;49.768;8.636;2023-01-26T11:01:17;1.40;99.90
59651;DHT22;45954;49.768;8.636;2023-01-26T11:04:11;1.30;99.90
59651;DHT22;45954;49.768;8.636;2023-01-26T11:06:39;1.50;99.90
59651;DHT22;45954;49.768;8.636;2023-01-26T11:11:39;1.90;99.90
59651;DHT22;45954;49.768;8.636;2023-01-26T11:14:17;2.00;99.90
59651;DHT22;45954;49.768;8.636;2023-01-26T11:16:58;1.70;99.90
59651;DHT22;45954;49.768;8.636;2023-01-26T11:19:51;1.70;99.90
59651;DHT22;45954;49.768;8.636;2023-01-26T11:31:31;1.70;99.90
59651;DHT22;45954;49.768;8.636;2023-01-26T11:34:28;1.80;99.90
59651;DHT22;45954;49.768;8.636;2023-01-26T11:37:42;1.60;99.90
59651;DHT22;45954;49.768;8.636;2023-01-26T11:40:25;1.50;99.90
59651;DHT22;45954;49.768;8.636;2023-01-26T11:42:59;1.60;99.90
59651;DHT22;45954;49.768;8.636;2023-01-26T11:46:04;1.60;99.90
59651;DHT22;45954;49.768;8.636;2023-01-26T11:49:15;1.50;99.90
59651;DHT22;45954;49.768;8.636;2023-01-26T11:52:31;1.40;99.90
59651;DHT22;45954;49.768;8.636;2023-01-26T11:55:44;1.50;99.90
59651;DHT22;45954;49.768;8.636;2023-01-26T11:58:28;1.50;99.90
59651;DHT22;45954;49.768;8.636;2023-01-26T12:01:02;1.30;99.90
59651;DHT22;45954;49.768;8.636;2023-01-26T12:03:49;1.50;99.90
59651;DHT22;45954;49.768;8.636;2023-01-26T12:06:19;1.40;99.90
59651;DHT22;45954;49.768;8.636;2023-01-26T12:09:06;1.40;99.90
59651;DHT22;45954;49.768;8.636;2023-01-26T12:12:04;1.70;99.90
59651;DHT22;45954;49.768;8.636;2023-01-26T12:14:47;1.60;99.90
59651;DHT22;45954;49.768;8.636;2023-01-26T12:20:38;1.20;99.90
59651;DHT22;45954;49.768;8.636;2023-01-26T12:26:20;1.60;99.90
59651;DHT22;45954;49.768;8.636;2023-01-26T12:29:12;1.50;99.90
59651;DHT22;45954;49.768;8.636;2023-01-26T12:34:28;1.40;99.90
59651;DHT22;45954;49.768;8.636;2023-01-26T12:40:43;1.30;99.90
59651;DHT22;45954;49.768;8.636;2023-01-26T12:43:38;1.70;99.90
59651;DHT22;45954;49.768;8.636;2023-01-26T12:46:14;1.50;99.90
59651;DHT22;45954;49.768;8.636;2023-01-26T12:48:54;1.50;99.90
59651;DHT22;45954;49.768;8.636;2023-01-26T12:51:30;1.60;99.90
59651;DHT22;45954;49.768;8.636;2023-01-26T12:54:06;1.80;99.90
59651;DHT22;45954;49.768;8.636;2023-01-26T12:56:46;1.70;99.90
59651;DHT22;45954;49.768;8.636;2023-01-26T12:59:33;1.70;99.90
59651;DHT22;45954;49.768;8.636;2023-01-26T13:02:30;2.00;99.90
59651;DHT22;45954;49.768;8.636;2023-01-26T13:05:01;1.80;99.90
59651;DHT22;45954;49.768;8.636;2023-01-26T13:07:37;1.80;99.90
59651;DHT22;45954;49.768;8.636;2023-01-26T13:12:57;2.20;99.90
59651;DHT22;45954;49.768;8.636;2023-01-26T13:16:06;2.40;99.90
59651;DHT22;45954;49.768;8.636;2023-01-26T13:18:52;2.40;99.90
59651;DHT22;45954;49.768;8.636;2023-01-26T13:21:45;2.00;99.90
59651;DHT22;45954;49.768;8.636;2023-01-26T13:31:51;2.00;99.90
59651;DHT22;45954;49.768;8.636;2023-01-26T13:34:45;1.90;99.90
59651;DHT22;45954;49.768;8.636;2023-01-26T13:37:20;1.90;99.90
59651;DHT22;45954;49.768;8.636;2023-01-26T13:40:02;2.20;99.90
59651;DHT22;45954;49.768;8.636;2023-01-26T13:42:56;2.10;99.90
59651;DHT22;45954;49.768;8.636;2023-01-26T13:48:14;2.20;99.90
59651;DHT22;45954;49.768;8.636;2023-01-26T13:50:42;2.20;99.90
59651;DHT22;45954;49.768;8.636;2023-01-26T13:56:23;1.40;99.90
59651;DHT22;45954;49.768;8.636;2023-01-26T13:58:51;1.80;99.90
59651;DHT22;45954;49.768;8.636;2023-01-26T14:01:19;1.80;99.90
59651;DHT22;45954;49.768;8.636;2023-01-26T14:03:46;1.80;99.90
59651;DHT22;45954;49.768;8.636;2023-01-26T14:06:20;1.90;99.90
59651;DHT22;45954;49.768;8.636;2023-01-26T14:08:53;1.90;99.90
59651;DHT22;45954;49.768;8.636;2023-01-26T14:11:23;1.90;99.90
59651;DHT22;45954;49.768;8.636;2023-01-26T14:13:53;1.80;99.90
59651;DHT22;45954;49.768;8.636;2023-01-26T14:16:28;1.80;99.90
59651;DHT22;45954;49.768;8.636;2023-01-26T14:19:16;1.80;99.90
59651;DHT22;45954;49.768;8.636;2023-01-26T14:21:56;1.70;99.90
59651;DHT22;45954;49.768;8.636;2023-01-26T14:24:36;1.50;99.90
59651;DHT22;45954;49.768;8.636;2023-01-26T14:29:54;1.80;99.90
59651;DHT22;45954;49.768;8.636;2023-01-26T14:32:20;1.80;99.90
59651;DHT22;45954;49.768;8.636;2023-01-26T14:34:56;1.90;99.90
59651;DHT22;45954;49.768;8.636;2023-01-26T14:37:23;1.80;99.90
59651;DHT22;45954;49.768;8.636;2023-01-26T14:40:15;1.70;99.90
59651;DHT22;45954;49.768;8.636;2023-01-26T14:42:47;1.70;99.90
59651;DHT22;45954;49.768;8.636;2023-01-26T14:45:15;1.40;99.90
59651;DHT22;45954;49.768;8.636;2023-01-26T14:47:42;1.30;99.90
59651;DHT22;45954;49.768;8.636;2023-01-26T14:50:24;1.30;99.90
59651;DHT22;45954;49.768;8.636;2023-01-26T14:52:59;1.60;99.90
59651;DHT22;45954;49.768;8.636;2023-01-26T14:55:29;1.60;99.90
59651;DHT22;45954;49.768;8.636;2023-01-26T14:57:57;1.60;99.90
59651;DHT22;45954;49.768;8.636;2023-01-26T15:00:32;1.50;99.90
59651;DHT22;45954;49.768;8.636;2023-01-26T15:03:11;1.70;99.90
59651;DHT22;45954;49.768;8.636;2023-01-26T15:05:40;1.70;99.90
59651;DHT22;45954;49.768;8.636;2023-01-26T15:08:23;1.70;99.90
59651;DHT22;45954;49.768;8.636;2023-01-26T15:13:42;1.40;99.90
59651;DHT22;45954;49.768;8.636;2023-01-26T15:16:21;1.40;99.90
59651;DHT22;45954;49.768;8.636;2023-01-26T15:18:58;1.60;99.90
59651;DHT22;45954;49.768;8.636;2023-01-26T15:21:34;1.80;99.90
59651;DHT22;45954;49.768;8.636;2023-01-26T15:24:09;1.70;99.90
59651;DHT22;45954;49.768;8.636;2023-01-26T15:26:37;1.60;99.90
59651;DHT22;45954;49.768;8.636;2023-01-26T15:29:15;1.70;99.90
59651;DHT22;45954;49.768;8.636;2023-01-26T15:31:52;1.70;99.90
59651;DHT22;45954;49.768;8.636;2023-01-26T15:34:35;1.70;99.90
59651;DHT22;45954;49.768;8.636;2023-01-26T15:37:29;1.40;99.90
59651;DHT22;45954;49.768;8.636;2023-01-26T15:39:56;1.20;99.90
59651;DHT22;45954;49.768;8.636;2023-01-26T15:42:27;1.30;99.90
59651;DHT22;45954;49.768;8.636;2023-01-26T15:44:55;1.50;99.90
59651;DHT22;45954;49.768;8.636;2023-01-26T15:47:22;1.30;99.90
59651;DHT22;45954;49.768;8.636;2023-01-26T15:49:48;1.30;99.90
59651;DHT22;45954;49.768;8.636;2023-01-26T15:52:26;1.50;99.90
59651;DHT22;45954;49.768;8.636;2023-01-26T15:54:54;1.80;99.90
59651;DHT22;45954;49.768;8.636;2023-01-26T15:57:20;1.90;99.90
59651;DHT22;45954;49.768;8.636;2023-01-26T15:59:46;2.00;99.90
59651;DHT22;45954;49.768;8.636;2023-01-26T16:02:18;2.00;99.90
59651;DHT22;45954;49.768;8.636;2023-01-26T16:04:45;1.90;99.90
59651;DHT22;45954;49.768;8.636;2023-01-26T16:07:14;1.90;99.90
59651;DHT22;45954;49.768;8.636;2023-01-26T16:09:42;2.00;99.90
59651;DHT22;45954;49.768;8.636;2023-01-26T16:12:15;1.70;99.90
59651;DHT22;45954;49.768;8.636;2023-01-26T16:14:42;1.60;99.90
59651;DHT22;45954;49.768;8.636;2023-01-26T16:17:16;1.70;99.90
59651;DHT22;45954;49.768;8.636;2023-01-26T16:19:43;1.70;99.90
59651;DHT22;45954;49.768;8.636;2023-01-26T16:22:10;1.70;99.90
59651;DHT22;45954;49.768;8.636;2023-01-26T16:24:40;1.70;99.90
59651;DHT22;45954;49.768;8.636;2023-01-26T16:27:06;1.50;99.90
59651;DHT22;45954;49.768;8.636;2023-01-26T16:29:32;1.50;99.90
59651;DHT22;45954;49.768;8.636;2023-01-26T16:31:59;1.60;99.90
59651;DHT22;45954;49.768;8.636;2023-01-26T16:34:26;1.90;99.90
59651;DHT22;45954;49.768;8.636;2023-01-26T16:36:52;2.00;99.90
59651;DHT22;45954;49.768;8.636;2023-01-26T16:39:20;1.90;99.90
59651;DHT22;45954;49.768;8.636;2023-01-26T16:41:46;1.90;99.90
59651;DHT22;45954;49.768;8.636;2023-01-26T16:44:14;2.00;99.90
59651;DHT22;45954;49.768;8.636;2023-01-26T16:46:42;2.00;99.90
59651;DHT22;45954;49.768;8.636;2023-01-26T16:49:13;1.80;99.90
59651;DHT22;45954;49.768;8.636;2023-01-26T16:51:41;1.90;99.90
59651;DHT22;45954;49.768;8.636;2023-01-26T16:54:09;2.20;99.90
59651;DHT22;45954;49.768;8.636;2023-01-26T16:56:35;2.10;99.90
59651;DHT22;45954;49.768;8.636;2023-01-26T16:59:01;2.10;99.90
59651;DHT22;45954;49.768;8.636;2023-01-26T17:01:33;2.20;99.90
59651;DHT22;45954;49.768;8.636;2023-01-26T17:04:00;2.00;99.90
59651;DHT22;45954;49.768;8.636;2023-01-26T17:06:28;2.10;99.90
59651;DHT22;45954;49.768;8.636;2023-01-26T17:08:54;2.30;99.90
59651;DHT22;45954;49.768;8.636;2023-01-26T17:11:24;2.40;99.90
59651;DHT22;45954;49.768;8.636;2023-01-26T17:13:52;2.40;99.90
59651;DHT22;45954;49.768;8.636;2023-01-26T17:16:22;2.10;99.90